Laurentino, Brazil
Current Conditions -  °F | °C
As of 12:00 AM on Saturday 25 Oct 2014 (Local Time) from SBNF Reporting Station
Broken Clouds Broken Clouds  
Wind Chill: 73°   Ceiling: 2700
Heat Index: 73°   Visibility: 6mi
Dew Point: 64°   Wind: 12mph
Humidity: 73%   Direction: 30°NNE
Pressure: 29.97"   Gusts: NA
Location:  27.22°S, 49.75°W
Report Text: SBNF 250200Z 03010KT 9999 FEW012 SCT018 BKN027 23/18 Q1015
Loading
Personal Weather Stations






























Interactive Weather Map
Tropical Storm Tracking
New forecast layout! Learn more

10-Day Weather Forecast

Advertisements
Track Severe Weather on mobile